Forest Knolls, California
Current Conditions -  °F | °C
As of 8:35 AM on Saturday 22 Nov 2014 (Local Time) from KDVO Reporting Station
Light Rain Light Rain  
Wind Chill: 64°   Ceiling: 1600
Heat Index: 64°   Visibility: NA
Dew Point: 63°   Wind: 12mph
Humidity: 94%   Direction: 260°W
Pressure: 30.03"   Gusts: 20mph
Location:  38.02°N, 122.69°W
Report Text: KDVO 221635Z AUTO 26010G17KT -RA BKN016 OVC022 18/17 A3003 RMK AO2 P0001
Loading
Personal Weather Stations






























Interactive Weather Map New forecast layout! Learn more

10-Day Weather Forecast

Advertisements
Track Severe Weather on mobile